createdAt,value
2019-02-05T00:00:55.401Z,5.34
2019-02-05T00:03:26.990Z,5.38
2019-02-05T00:05:58.766Z,5.42
2019-02-05T00:08:30.471Z,5.45
2019-02-05T00:11:02.274Z,5.49
2019-02-05T00:13:33.890Z,5.43
2019-02-05T00:16:05.922Z,5.34
2019-02-05T00:18:37.523Z,5.34
2019-02-05T00:21:09.253Z,5.37
2019-02-05T00:23:41.100Z,5.42
2019-02-05T00:26:14.566Z,5.49
2019-02-05T00:28:46.335Z,5.48
2019-02-05T00:31:21.061Z,5.42
2019-02-05T00:33:54.535Z,5.36
2019-02-05T00:36:30.263Z,5.37
2019-02-05T00:39:01.981Z,5.42
2019-02-05T00:41:35.456Z,5.41
2019-02-05T00:44:07.280Z,5.40
2019-02-05T00:46:39.279Z,5.43
2019-02-05T00:49:11.014Z,5.46
2019-02-05T00:51:42.759Z,5.44
2019-02-05T00:54:15.810Z,5.43
2019-02-05T00:56:47.582Z,5.43
2019-02-05T00:59:19.280Z,5.46
2019-02-05T01:01:51.500Z,5.45
2019-02-05T01:04:25.192Z,5.42
2019-02-05T01:06:57.025Z,5.46
2019-02-05T01:09:29.040Z,5.48
2019-02-05T01:12:00.754Z,5.49
2019-02-05T01:14:32.453Z,5.54
2019-02-05T01:17:04.161Z,5.58
2019-02-05T01:19:36.167Z,5.57
2019-02-05T01:22:08.451Z,5.61
2019-02-05T01:24:40.100Z,5.63
2019-02-05T01:27:13.093Z,5.66
2019-02-05T01:29:44.761Z,5.71
2019-02-05T01:32:19.705Z,5.74
2019-02-05T01:34:51.955Z,5.74
2019-02-05T01:37:23.671Z,5.72
2019-02-05T01:39:55.887Z,5.73
2019-02-05T01:42:28.094Z,5.67
2019-02-05T01:44:59.711Z,5.57
2019-02-05T01:47:31.339Z,5.49
2019-02-05T01:50:03.727Z,5.47
2019-02-05T01:52:35.443Z,5.47
2019-02-05T01:55:07.683Z,5.41
2019-02-05T01:57:39.701Z,5.40
2019-02-05T02:00:16.841Z,5.39
2019-02-05T02:02:48.638Z,5.35
2019-02-05T02:05:21.223Z,5.33
2019-02-05T02:07:52.933Z,5.31
2019-02-05T02:10:27.033Z,5.28
2019-02-05T02:12:58.844Z,5.26
2019-02-05T02:15:30.710Z,5.26
2019-02-05T02:18:02.425Z,5.21
2019-02-05T02:20:34.405Z,5.15
2019-02-05T02:23:06.236Z,5.09
2019-02-05T02:25:38.065Z,5.03
2019-02-05T02:28:09.686Z,4.99
2019-02-05T02:30:42.497Z,4.96
2019-02-05T02:33:15.709Z,4.85
2019-02-05T02:35:48.307Z,4.71
2019-02-05T02:38:20.028Z,4.60
2019-02-05T02:40:53.530Z,4.52
2019-02-05T02:43:25.150Z,4.43
2019-02-05T02:45:57.142Z,4.36
2019-02-05T02:48:28.747Z,4.29
2019-02-05T02:51:01.025Z,4.23
2019-02-05T02:53:32.683Z,4.16
2019-02-05T02:56:04.314Z,4.09
2019-02-05T02:58:36.186Z,4.08
2019-02-05T03:01:07.871Z,4.10
2019-02-05T03:03:39.476Z,4.10
2019-02-05T03:06:11.971Z,4.09
2019-02-05T03:08:43.638Z,4.09
2019-02-05T03:11:15.565Z,4.08
2019-02-05T03:13:47.217Z,4.05
2019-02-05T03:16:19.041Z,4.04
2019-02-05T03:18:50.624Z,4.07
2019-02-05T03:21:22.270Z,4.10
2019-02-05T03:23:54.349Z,4.14
2019-02-05T03:26:26.413Z,4.16
2019-02-05T03:28:58.055Z,4.17
2019-02-05T03:31:29.785Z,4.17
2019-02-05T03:34:01.419Z,4.18
2019-02-05T03:36:33.194Z,4.14
2019-02-05T03:39:08.153Z,4.04
2019-02-05T03:41:40.552Z,3.91
2019-02-05T03:44:12.564Z,3.77
2019-02-05T03:46:45.695Z,3.71
2019-02-05T03:49:17.493Z,3.68
2019-02-05T03:52:42.447Z,3.66
2019-02-05T03:55:45.139Z,3.68
2019-02-05T03:59:06.918Z,3.70
2019-02-05T04:02:34.456Z,3.73
2019-02-05T04:05:59.735Z,3.72
2019-02-05T04:09:10.129Z,3.70
2019-02-05T04:12:18.956Z,3.62
2019-02-05T04:15:41.028Z,3.57
2019-02-05T04:19:03.247Z,3.57
2019-02-05T04:22:45.097Z,3.58
2019-02-05T04:26:30.851Z,3.62
2019-02-05T04:29:48.172Z,3.65
2019-02-05T04:33:32.164Z,3.69
2019-02-05T04:37:02.151Z,3.71
2019-02-05T04:40:15.785Z,3.71
2019-02-05T04:43:33.110Z,3.72
2019-02-05T04:46:42.088Z,3.72
2019-02-05T04:50:17.160Z,3.73
2019-02-05T04:53:59.101Z,3.74
2019-02-05T04:57:38.204Z,3.71
2019-02-05T05:01:18.063Z,3.59
2019-02-05T05:05:13.258Z,3.40
2019-02-05T05:08:16.586Z,3.32
2019-02-05T05:10:49.961Z,3.26
2019-02-05T05:13:37.608Z,3.18
2019-02-05T05:16:09.481Z,3.13
2019-02-05T05:18:44.048Z,3.09
2019-02-05T05:21:42.586Z,3.07
2019-02-05T05:24:20.180Z,3.05
2019-02-05T05:26:58.564Z,3.04
2019-02-05T05:29:33.139Z,3.06
2019-02-05T05:32:04.126Z,3.07
2019-02-05T05:34:43.624Z,3.09
2019-02-05T05:37:14.470Z,3.10
2019-02-05T05:39:52.278Z,3.11
2019-02-05T05:42:27.687Z,3.12
2019-02-05T05:45:03.593Z,3.13
2019-02-05T05:47:36.711Z,3.12
2019-02-05T05:50:21.183Z,3.14
2019-02-05T05:52:58.933Z,3.13
2019-02-05T05:55:32.821Z,3.06
2019-02-05T05:58:21.942Z,2.99
2019-02-05T06:00:44.077Z,2.93
2019-02-05T06:08:32.002Z,2.90
2019-02-05T06:11:06.144Z,2.92
2019-02-05T06:13:39.559Z,2.91
2019-02-05T06:16:17.543Z,2.93
2019-02-05T06:18:56.980Z,2.98
2019-02-05T06:21:28.693Z,3.00
2019-02-05T06:24:02.983Z,3.02
2019-02-05T06:26:41.464Z,3.04
2019-02-05T06:29:13.374Z,3.07
2019-02-05T06:31:45.138Z,3.09
2019-02-05T06:34:17.035Z,3.11
2019-02-05T06:36:49.246Z,3.14
2019-02-05T06:39:20.965Z,3.16
2019-02-05T06:41:53.425Z,3.16
2019-02-05T06:44:25.527Z,3.15
2019-02-05T06:46:57.167Z,3.17
2019-02-05T06:49:29.369Z,3.17
2019-02-05T06:52:01.075Z,3.17
2019-02-05T06:54:32.886Z,3.19
2019-02-05T06:57:05.501Z,3.19
2019-02-05T06:59:37.638Z,3.20
2019-02-05T07:02:10.873Z,3.22
2019-02-05T07:04:42.634Z,3.23
2019-02-05T07:07:14.336Z,3.25
2019-02-05T07:09:46.249Z,3.26
2019-02-05T07:12:18.305Z,3.24
2019-02-05T07:14:50.351Z,3.22
2019-02-05T07:17:21.971Z,3.21
2019-02-05T07:19:53.886Z,3.21
2019-02-05T07:22:25.729Z,3.20
2019-02-05T07:24:57.383Z,3.20
2019-02-05T07:27:29.370Z,3.21
2019-02-05T07:30:01.178Z,3.20
2019-02-05T07:32:32.803Z,3.20
2019-02-05T07:35:05.385Z,3.20
2019-02-05T07:37:36.983Z,3.21
2019-02-05T07:40:12.839Z,3.22
2019-02-05T07:42:45.488Z,3.24
2019-02-05T07:45:19.444Z,3.25
2019-02-05T07:47:51.351Z,3.28
2019-02-05T07:50:25.512Z,3.34
2019-02-05T07:52:57.279Z,3.37
2019-02-05T07:55:29.589Z,3.45
2019-02-05T07:58:01.927Z,3.49
2019-02-05T08:00:33.976Z,3.54
2019-02-05T08:03:06.097Z,3.60
2019-02-05T08:05:38.024Z,3.64
2019-02-05T08:08:10.263Z,3.69
2019-02-05T08:10:43.374Z,3.71
2019-02-05T08:13:14.991Z,3.73
2019-02-05T08:15:46.754Z,3.75
2019-02-05T08:18:18.542Z,3.80
2019-02-05T08:20:50.120Z,3.88
2019-02-05T08:23:22.215Z,3.96
2019-02-05T08:25:53.821Z,4.02
2019-02-05T08:28:25.530Z,4.07
2019-02-05T08:30:57.142Z,4.14
2019-02-05T08:33:29.814Z,4.23
2019-02-05T08:36:02.255Z,4.32
2019-02-05T08:38:34.353Z,4.40
2019-02-05T08:41:06.705Z,4.49
2019-02-05T08:43:39.918Z,4.57
2019-02-05T08:46:11.581Z,4.65
2019-02-05T08:48:43.253Z,4.73
2019-02-05T08:51:16.627Z,4.80
2019-02-05T08:53:48.473Z,4.89
2019-02-05T08:56:20.090Z,4.95
2019-02-05T08:58:51.749Z,5.01
2019-02-05T09:01:23.502Z,5.07
2019-02-05T09:03:55.091Z,5.11
2019-02-05T09:06:26.750Z,5.20
2019-02-05T09:08:58.438Z,5.26
2019-02-05T09:11:30.397Z,5.32
2019-02-05T09:14:10.726Z,5.39
2019-02-05T09:16:36.910Z,5.46
2019-02-05T09:19:09.642Z,5.54
2019-02-05T09:21:41.276Z,5.62
2019-02-05T09:24:13.058Z,5.69
2019-02-05T09:26:45.064Z,5.76
2019-02-05T09:29:17.378Z,5.78
2019-02-05T09:31:49.229Z,5.84
2019-02-05T09:34:20.911Z,5.90
2019-02-05T09:36:52.584Z,5.98
2019-02-05T09:39:24.338Z,6.06
2019-02-05T09:41:56.917Z,6.14
2019-02-05T09:44:31.602Z,6.21
2019-02-05T09:47:03.355Z,6.28
2019-02-05T09:49:36.643Z,6.35
2019-02-05T09:52:08.333Z,6.44
2019-02-05T09:54:39.982Z,6.51
2019-02-05T09:57:13.379Z,6.57
2019-02-05T09:59:45.746Z,6.62
2019-02-05T10:02:17.575Z,6.68
2019-02-05T10:04:49.391Z,6.75
2019-02-05T10:07:21.355Z,6.81
2019-02-05T10:09:53.484Z,6.89
2019-02-05T10:12:26.890Z,6.94
2019-02-05T10:14:58.685Z,6.99
2019-02-05T10:17:30.448Z,7.03
2019-02-05T10:20:02.099Z,7.09
2019-02-05T10:22:33.886Z,7.14
2019-02-05T10:25:07.314Z,7.19
2019-02-05T10:27:39.572Z,7.24
2019-02-05T10:30:17.897Z,7.27
2019-02-05T10:32:49.491Z,7.29
2019-02-05T10:35:22.735Z,7.32
2019-02-05T10:37:54.859Z,7.36
2019-02-05T10:40:26.956Z,7.37
2019-02-05T10:48:04.243Z,7.49
2019-02-05T10:50:36.137Z,7.54
2019-02-05T10:53:07.850Z,7.60
2019-02-05T10:55:39.640Z,7.65
2019-02-05T10:58:12.049Z,7.72
2019-02-05T11:00:43.659Z,7.79
2019-02-05T11:03:15.262Z,7.84
2019-02-05T11:05:46.989Z,7.88
2019-02-05T11:08:18.726Z,7.89
2019-02-05T11:10:50.363Z,7.92
2019-02-05T11:13:22.240Z,7.98
2019-02-05T11:15:54.111Z,7.99
2019-02-05T11:18:25.913Z,8.01
2019-02-05T11:20:57.578Z,8.04
2019-02-05T11:23:29.329Z,8.09
2019-02-05T11:26:00.982Z,8.12
2019-02-05T11:28:33.085Z,8.16
2019-02-05T11:31:05.310Z,8.22
2019-02-05T11:33:36.956Z,8.29
2019-02-05T11:36:08.736Z,8.29
2019-02-05T11:38:40.367Z,8.37
2019-02-05T11:41:13.761Z,8.42
2019-02-05T11:43:47.526Z,8.48
2019-02-05T11:46:19.346Z,8.53
2019-02-05T11:48:51.101Z,8.58
2019-02-05T11:51:22.753Z,8.60
2019-02-05T11:53:54.401Z,8.63
2019-02-05T11:56:26.555Z,8.66
2019-02-05T11:59:08.624Z,8.67
2019-02-05T12:01:41.969Z,8.71
2019-02-05T12:04:15.200Z,8.75
2019-02-05T12:06:48.618Z,8.79
2019-02-05T12:09:33.167Z,8.83
2019-02-05T12:12:04.779Z,8.86
2019-02-05T12:14:38.007Z,8.85
2019-02-05T12:17:10.187Z,8.86
2019-02-05T12:19:42.070Z,8.87
2019-02-05T12:22:13.747Z,8.87
2019-02-05T12:24:45.340Z,8.88
2019-02-05T12:27:16.976Z,8.90
2019-02-05T12:29:48.602Z,8.95
2019-02-05T12:32:20.989Z,8.98
2019-02-05T12:34:52.631Z,9.00
2019-02-05T12:37:24.255Z,9.01
2019-02-05T12:39:55.971Z,9.00
2019-02-05T12:42:28.081Z,9.02
2019-02-05T12:45:00.338Z,9.06
2019-02-05T12:47:32.189Z,9.12
2019-02-05T12:50:03.892Z,9.15
2019-02-05T12:52:35.553Z,9.19
2019-02-05T12:55:13.272Z,9.19
2019-02-05T12:57:41.438Z,9.21
2019-02-05T13:00:56.836Z,9.26
2019-02-05T13:03:20.508Z,9.27
2019-02-05T13:05:52.309Z,9.27
2019-02-05T13:08:24.111Z,9.26
2019-02-05T13:10:55.741Z,9.27
2019-02-05T13:13:27.537Z,9.28
2019-02-05T13:15:59.166Z,9.30
2019-02-05T13:18:31.099Z,9.35
2019-02-05T13:21:02.717Z,9.41
2019-02-05T13:23:34.633Z,9.43
2019-02-05T13:26:07.533Z,9.47
2019-02-05T13:28:39.448Z,9.50
2019-02-05T13:31:11.314Z,9.52
2019-02-05T13:33:43.165Z,9.53
2019-02-05T13:36:17.624Z,9.55
2019-02-05T13:38:49.340Z,9.57
2019-02-05T13:42:02.920Z,9.61
2019-02-05T13:45:48.550Z,9.62
2019-02-05T13:48:25.560Z,9.65
2019-02-05T13:50:57.633Z,9.66
2019-02-05T13:53:29.492Z,9.69
2019-02-05T13:56:01.134Z,9.74
2019-02-05T13:58:34.047Z,9.78
2019-02-05T14:01:06.153Z,9.79
2019-02-05T14:03:38.392Z,9.84
2019-02-05T14:06:10.369Z,9.87
2019-02-05T14:08:41.976Z,9.89
2019-02-05T14:11:13.884Z,9.92
2019-02-05T14:13:45.525Z,9.95
2019-02-05T14:16:17.494Z,9.96
2019-02-05T14:18:55.339Z,9.98
2019-02-05T14:21:23.023Z,9.97
2019-02-05T14:24:05.892Z,9.96
2019-02-05T14:26:39.598Z,9.95
2019-02-05T14:29:16.582Z,9.97
2019-02-05T14:31:49.727Z,9.98
2019-02-05T14:34:23.108Z,10.00
2019-02-05T14:36:56.053Z,10.03
2019-02-05T14:39:27.691Z,10.04
2019-02-05T14:42:00.040Z,10.05
2019-02-05T14:44:31.943Z,10.04
2019-02-05T14:47:03.577Z,10.04
2019-02-05T14:49:35.373Z,10.04
2019-02-05T14:52:07.202Z,10.03
2019-02-05T14:54:38.940Z,10.02
2019-02-05T14:57:10.746Z,10.00
2019-02-05T14:59:42.473Z,9.99
2019-02-05T15:02:14.240Z,9.97
2019-02-05T15:04:46.197Z,9.97
2019-02-05T15:07:18.487Z,9.96
2019-02-05T15:09:50.540Z,9.95
2019-02-05T15:12:22.295Z,9.95
2019-02-05T15:14:53.953Z,9.93
2019-02-05T15:17:25.769Z,9.92
2019-02-05T15:19:57.515Z,9.91
2019-02-05T15:22:29.462Z,9.88
2019-02-05T15:25:01.560Z,9.84
2019-02-05T15:27:33.204Z,9.83
2019-02-05T15:30:07.942Z,9.82
2019-02-05T15:32:46.827Z,9.82
2019-02-05T15:35:18.543Z,9.82
2019-02-05T15:37:50.195Z,9.79
2019-02-05T15:40:22.359Z,9.79
2019-02-05T15:42:54.940Z,9.78
2019-02-05T15:45:28.316Z,9.75
2019-02-05T15:48:00.023Z,9.74
2019-02-05T15:50:32.129Z,9.72
2019-02-05T15:53:04.096Z,9.70
2019-02-05T15:55:36.162Z,9.68
2019-02-05T15:58:10.001Z,9.67
2019-02-05T16:00:41.704Z,9.62
2019-02-05T16:03:13.620Z,9.58
2019-02-05T16:05:45.397Z,9.54
2019-02-05T16:08:17.106Z,9.52
2019-02-05T16:10:49.189Z,9.50
2019-02-05T16:13:20.998Z,9.47
2019-02-05T16:15:52.748Z,9.44
2019-02-05T16:18:24.820Z,9.43
2019-02-05T16:20:57.721Z,9.41
2019-02-05T16:23:29.663Z,9.37
2019-02-05T16:26:01.603Z,9.29
2019-02-05T16:28:33.270Z,9.28
2019-02-05T16:31:05.092Z,9.26
2019-02-05T16:33:36.721Z,9.23
2019-02-05T16:36:08.485Z,9.19
2019-02-05T16:38:40.428Z,9.13
2019-02-05T16:41:12.273Z,9.04
2019-02-05T16:43:44.500Z,8.91
2019-02-05T16:46:16.314Z,8.75
2019-02-05T16:48:48.143Z,8.60
2019-02-05T16:51:19.782Z,8.48
2019-02-05T16:53:51.462Z,8.38
2019-02-05T16:56:23.230Z,8.30
2019-02-05T16:58:54.931Z,8.23
2019-02-05T17:01:26.794Z,8.18
2019-02-05T17:03:58.458Z,8.17
2019-02-05T17:06:30.166Z,8.14
2019-02-05T17:09:01.831Z,8.11
2019-02-05T17:11:33.520Z,8.06
2019-02-05T17:14:10.843Z,8.00
2019-02-05T17:16:46.635Z,7.95
2019-02-05T17:19:26.922Z,7.91
2019-02-05T17:21:55.093Z,7.86
2019-02-05T17:24:28.226Z,7.76
2019-02-05T17:27:04.617Z,7.65
2019-02-05T17:29:36.367Z,7.53
2019-02-05T17:32:08.308Z,7.44
2019-02-05T17:34:40.404Z,7.36
2019-02-05T17:37:12.429Z,7.28
2019-02-05T17:39:44.136Z,7.22
2019-02-05T17:42:15.968Z,7.14
2019-02-05T17:44:47.627Z,7.02
2019-02-05T17:47:19.961Z,6.93
2019-02-05T17:49:51.784Z,6.86
2019-02-05T17:52:26.917Z,6.77
2019-02-05T17:54:57.060Z,6.69
2019-02-05T17:57:31.693Z,6.66
2019-02-05T18:00:05.861Z,6.65
2019-02-05T18:02:37.640Z,6.64
2019-02-05T18:05:12.428Z,6.63
2019-02-05T18:07:44.255Z,6.64
2019-02-05T18:10:18.907Z,6.65
2019-02-05T18:12:50.707Z,6.67
2019-02-05T18:15:36.174Z,6.69
2019-02-05T18:18:27.002Z,6.71
2019-02-05T18:20:59.062Z,6.72
2019-02-05T18:23:30.794Z,6.75
2019-02-05T18:26:02.518Z,6.75
2019-02-05T18:28:34.431Z,6.77
2019-02-05T18:31:06.257Z,6.78
2019-02-05T18:33:40.232Z,6.76
2019-02-05T18:36:22.278Z,6.74
2019-02-05T18:38:56.327Z,6.71
2019-02-05T18:41:29.300Z,6.64
2019-02-05T18:44:03.042Z,6.48
2019-02-05T18:46:34.819Z,6.29
2019-02-05T18:49:08.212Z,6.14
2019-02-05T18:51:40.599Z,6.01
2019-02-05T18:54:12.493Z,5.93
2019-02-05T18:56:45.934Z,5.92
2019-02-05T18:59:17.943Z,5.95
2019-02-05T19:01:50.380Z,5.98
2019-02-05T19:04:22.434Z,6.01
2019-02-05T19:06:54.408Z,6.03
2019-02-05T19:09:26.971Z,6.00
2019-02-05T19:12:02.629Z,5.94
2019-02-05T19:14:32.092Z,5.86
2019-02-05T19:17:03.878Z,5.75
2019-02-05T19:19:35.700Z,5.66
2019-02-05T19:22:07.669Z,5.63
2019-02-05T19:25:05.007Z,5.65
2019-02-05T19:27:36.771Z,5.66
2019-02-05T19:30:10.594Z,5.64
2019-02-05T19:32:42.487Z,5.59
2019-02-05T19:35:14.454Z,5.49
2019-02-05T19:37:46.264Z,5.42
2019-02-05T19:40:18.707Z,5.36
2019-02-05T19:42:51.244Z,5.28
2019-02-05T19:45:33.826Z,5.23
2019-02-05T19:48:06.806Z,5.20
2019-02-05T19:50:38.822Z,5.19
2019-02-05T19:53:10.558Z,5.18
2019-02-05T19:55:44.669Z,5.13
2019-02-05T19:58:16.448Z,5.06
2019-02-05T20:00:48.358Z,4.97
2019-02-05T20:03:20.439Z,4.90
2019-02-05T20:05:52.403Z,4.84
2019-02-05T20:08:26.793Z,4.80
2019-02-05T20:10:58.249Z,4.78
2019-02-05T20:13:40.017Z,4.77
2019-02-05T20:16:03.976Z,4.75
2019-02-05T20:18:35.881Z,4.72
2019-02-05T20:21:07.591Z,4.71
2019-02-05T20:23:39.301Z,4.74
2019-02-05T20:26:11.737Z,4.78
2019-02-05T20:28:43.674Z,4.82
2019-02-05T20:31:15.535Z,4.83
2019-02-05T20:33:49.916Z,4.85
2019-02-05T20:36:20.690Z,4.87
2019-02-05T20:38:52.477Z,4.84
2019-02-05T20:41:25.177Z,4.77
2019-02-05T20:43:57.791Z,4.68
2019-02-05T20:46:29.533Z,4.61
2019-02-05T20:49:01.396Z,4.55
2019-02-05T20:51:33.134Z,4.51
2019-02-05T20:54:06.301Z,4.48
2019-02-05T20:56:38.794Z,4.47
2019-02-05T20:59:12.709Z,4.48
2019-02-05T21:01:44.697Z,4.48
2019-02-05T21:04:16.504Z,4.50
2019-02-05T21:06:48.298Z,4.52
2019-02-05T21:09:22.081Z,4.53
2019-02-05T21:11:53.839Z,4.54
2019-02-05T21:14:26.801Z,4.57
2019-02-05T21:16:58.603Z,4.61
2019-02-05T21:19:30.520Z,4.64
2019-02-05T21:22:02.323Z,4.67
2019-02-05T21:24:34.100Z,4.69
2019-02-05T21:27:05.828Z,4.72
2019-02-05T21:29:38.285Z,4.73
2019-02-05T21:32:09.970Z,4.64
2019-02-05T21:34:41.714Z,4.54
2019-02-05T21:37:13.496Z,4.46
2019-02-05T21:39:45.286Z,4.35
2019-02-05T21:42:17.749Z,4.23
2019-02-05T21:44:50.196Z,4.15
2019-02-05T21:47:22.163Z,4.07
2019-02-05T21:49:53.765Z,4.00
2019-02-05T21:52:25.480Z,3.94
2019-02-05T21:54:57.214Z,3.93
2019-02-05T21:57:29.072Z,3.95
2019-02-05T22:00:01.929Z,3.95
2019-02-05T22:02:33.702Z,3.96
2019-02-05T22:05:06.969Z,3.94
2019-02-05T22:07:38.720Z,3.88
2019-02-05T22:10:10.960Z,3.82
2019-02-05T22:12:43.052Z,3.74
2019-02-05T22:15:16.197Z,3.67
2019-02-05T22:17:48.158Z,3.64
2019-02-05T22:20:22.732Z,3.64
2019-02-05T22:22:59.950Z,3.66
2019-02-05T22:25:28.797Z,3.70
2019-02-05T22:28:00.616Z,3.76
2019-02-05T22:30:34.223Z,3.81
2019-02-05T22:33:07.817Z,3.82
2019-02-05T22:35:39.471Z,3.83
2019-02-05T22:38:11.210Z,3.79
2019-02-05T22:40:42.888Z,3.75
2019-02-05T22:43:15.230Z,3.72
2019-02-05T22:45:46.882Z,3.70
2019-02-05T22:48:19.029Z,3.64
2019-02-05T22:50:52.231Z,3.57
2019-02-05T22:53:23.969Z,3.58
2019-02-05T22:55:55.632Z,3.53
2019-02-05T22:58:27.596Z,3.44
2019-02-05T23:01:59.228Z,3.35
2019-02-05T23:05:13.059Z,3.26
2019-02-05T23:07:45.486Z,3.14
2019-02-05T23:11:03.229Z,3.04
2019-02-05T23:13:28.001Z,3.01
2019-02-05T23:15:59.914Z,3.02
2019-02-05T23:18:31.931Z,3.03
2019-02-05T23:21:03.631Z,3.07
2019-02-05T23:23:35.708Z,3.13
2019-02-05T23:26:07.521Z,3.19
2019-02-05T23:28:39.346Z,3.26
2019-02-05T23:31:11.022Z,3.30
2019-02-05T23:33:44.737Z,3.35
2019-02-05T23:36:15.971Z,3.34
2019-02-05T23:38:48.001Z,3.35
2019-02-05T23:41:19.639Z,3.36
2019-02-05T23:43:52.128Z,3.34
2019-02-05T23:46:23.784Z,3.30
2019-02-05T23:48:55.640Z,3.29
2019-02-05T23:51:27.274Z,3.28
2019-02-05T23:53:59.583Z,3.32
2019-02-05T23:56:31.216Z,3.36
2019-02-05T23:59:03.032Z,3.41
